Time;durP1;ratioP1;P1;durP2;ratioP2;P2;SDS_P1;SDS_P2;PMS_P1;PMS_P2;Temp;Humidity;BMP_temperature;BMP_pressure;BME280_temperature;BME280_humidity;BME280_pressure;Samples;Min_cycle;Max_cycle;Signal;HPM_P1;HPM_P2
2021/08/30 00:01:50;;;;;;;5.85;1.45;;;12.00;77.00;;;;;;4872500;29;20496;-72
2021/08/30 00:04:17;;;;;;;2.65;2.15;;;12.00;77.20;;;;;;4870446;29;20054;-73
2021/08/30 00:06:44;;;;;;;2.58;1.13;;;12.00;77.20;;;;;;4871444;29;20037;-74
2021/08/30 00:09:10;;;;;;;3.70;1.13;;;12.00;77.20;;;;;;4873446;29;20028;-72
2021/08/30 00:12:17;;;;;;;3.67;0.98;;;12.00;77.30;;;;;;4869073;29;20176;-72
2021/08/30 00:15:23;;;;;;;4.65;2.00;;;12.00;77.40;;;;;;4870905;29;20090;-70
2021/08/30 00:18:29;;;;;;;5.50;1.00;;;12.00;77.50;;;;;;4874005;29;20039;-71
2021/08/30 00:21:35;;;;;;;2.05;1.33;;;12.00;77.50;;;;;;4866702;29;20028;-70
2021/08/30 00:24:01;;;;;;;3.65;2.40;;;12.00;77.50;;;;;;4876476;29;20480;-69
2021/08/30 00:26:28;;;;;;;3.40;2.30;;;12.00;77.70;;;;;;4870696;29;20545;-70
2021/08/30 00:28:54;;;;;;;6.00;1.23;;;12.00;77.80;;;;;;4872078;29;20029;-73
2021/08/30 00:31:22;;;;;;;4.60;1.15;;;12.00;78.00;;;;;;4870748;29;20503;-69
2021/08/30 00:33:48;;;;;;;6.28;1.98;;;12.00;78.10;;;;;;4873022;29;20372;-72
2021/08/30 00:36:15;;;;;;;5.35;1.35;;;12.00;78.10;;;;;;4873137;29;20043;-73
2021/08/30 00:38:41;;;;;;;4.55;1.30;;;12.00;78.10;;;;;;4870906;29;20037;-73
2021/08/30 00:41:08;;;;;;;3.75;1.20;;;12.00;78.20;;;;;;4870132;29;20029;-69
2021/08/30 00:43:34;;;;;;;2.95;1.05;;;12.00;78.30;;;;;;4869289;29;20081;-70
2021/08/30 00:46:05;;;;;;;4.85;1.60;;;12.00;78.30;;;;;;4874208;29;20029;-71
2021/08/30 00:48:32;;;;;;;6.35;1.83;;;12.00;78.50;;;;;;4869632;29;20029;-73
2021/08/30 00:51:38;;;;;;;6.15;1.40;;;11.90;78.40;;;;;;4872810;29;20409;-71
2021/08/30 00:54:44;;;;;;;5.63;1.42;;;12.00;78.60;;;;;;4875670;29;20029;-72
2021/08/30 00:57:50;;;;;;;2.80;1.35;;;11.90;78.60;;;;;;4872944;29;20052;-72
2021/08/30 01:00:56;;;;;;;4.15;1.30;;;11.90;78.70;;;;;;4873326;29;20021;-71
2021/08/30 01:04:02;;;;;;;3.17;0.95;;;11.90;78.70;;;;;;4873704;29;20029;-75
2021/08/30 01:06:48;;;;;;;5.38;1.05;;;11.80;78.90;;;;;;4874394;29;20041;-70
2021/08/30 01:09:47;;;;;;;4.40;1.33;;;11.80;79.00;;;;;;4869104;29;20041;-70
2021/08/30 01:12:22;;;;;;;1.23;0.93;;;11.80;79.20;;;;;;4873388;29;20069;-70
2021/08/30 01:14:59;;;;;;;7.18;1.67;;;11.80;79.30;;;;;;4870948;29;20053;-70
2021/08/30 01:17:26;;;;;;;3.85;1.15;;;11.80;79.30;;;;;;4857691;29;20049;-70
2021/08/30 01:20:33;;;;;;;4.63;1.67;;;11.80;79.50;;;;;;4873171;29;20025;-74
2021/08/30 01:23:01;;;;;;;3.20;0.75;;;11.80;79.50;;;;;;4862903;29;20041;-72
2021/08/30 01:25:30;;;;;;;5.45;0.70;;;11.80;79.70;;;;;;4854214;29;20033;-71
2021/08/30 01:27:57;;;;;;;5.90;1.60;;;11.80;79.60;;;;;;4867944;29;20033;-70
2021/08/30 01:30:26;;;;;;;2.88;0.90;;;11.80;79.50;;;;;;4874370;29;20723;-70
2021/08/30 01:32:58;;;;;;;1.65;0.73;;;11.80;79.40;;;;;;4871403;29;20048;-71
2021/08/30 01:35:27;;;;;;;6.35;1.10;;;11.80;79.60;;;;;;4874723;29;20052;-73
2021/08/30 01:38:06;;;;;;;11.68;2.83;;;11.80;79.70;;;;;;4875299;29;20041;-72
2021/08/30 01:40:35;;;;;;;6.63;1.05;;;11.80;79.70;;;;;;4872603;29;20030;-70
2021/08/30 01:43:01;;;;;;;4.50;1.95;;;11.80;79.50;;;;;;4871494;29;20036;-70
2021/08/30 01:45:31;;;;;;;3.28;0.90;;;11.80;79.30;;;;;;4873737;29;20024;-70
2021/08/30 01:48:02;;;;;;;3.35;1.10;;;11.80;79.30;;;;;;4874156;29;20013;-69
2021/08/30 01:50:30;;;;;;;4.18;1.10;;;11.80;79.50;;;;;;4873032;29;20077;-73
2021/08/30 01:53:00;;;;;;;7.35;1.38;;;11.80;79.70;;;;;;4856124;29;20056;-70
2021/08/30 02:00:52;;;;;;;7.82;1.10;;;11.90;80.20;;;;;;4875879;29;20061;-69
2021/08/30 02:03:28;;;;;;;4.85;0.98;;;11.90;80.30;;;;;;4871181;29;20040;-71
2021/08/30 02:05:57;;;;;;;3.03;0.93;;;12.00;80.50;;;;;;4871166;29;20028;-70
2021/08/30 02:08:25;;;;;;;4.60;1.52;;;12.00;80.40;;;;;;4873807;29;20036;-70
2021/08/30 02:10:54;;;;;;;5.20;1.23;;;12.00;80.30;;;;;;4874171;29;20085;-70
2021/08/30 02:13:27;;;;;;;5.20;1.63;;;12.00;80.30;;;;;;4871468;29;20542;-71
2021/08/30 02:15:55;;;;;;;4.28;1.27;;;12.00;80.40;;;;;;4872166;29;20029;-69
2021/08/30 02:18:34;;;;;;;3.92;0.77;;;12.00;80.40;;;;;;4873738;29;20036;-70
2021/08/30 02:21:06;;;;;;;4.80;0.98;;;12.00;80.60;;;;;;4875469;29;20500;-69
2021/08/30 02:23:38;;;;;;;6.30;1.65;;;12.00;80.70;;;;;;4869450;29;20705;-70
2021/08/30 02:26:12;;;;;;;4.20;1.50;;;12.00;80.70;;;;;;4871175;29;20025;-72
2021/08/30 02:28:41;;;;;;;2.97;1.13;;;12.00;80.80;;;;;;4870168;29;20052;-71
2021/08/30 02:31:10;;;;;;;5.40;1.30;;;12.00;80.70;;;;;;4872060;29;20904;-69
2021/08/30 02:33:37;;;;;;;3.00;1.15;;;11.90;80.60;;;;;;4874539;29;20029;-69
2021/08/30 02:36:04;;;;;;;4.47;1.05;;;11.90;80.80;;;;;;4868817;29;20096;-70
2021/08/30 02:38:34;;;;;;;6.60;0.75;;;11.90;80.80;;;;;;4870236;29;20053;-72
2021/08/30 02:41:02;;;;;;;3.38;0.90;;;11.90;80.80;;;;;;4873617;29;20017;-70
2021/08/30 02:43:30;;;;;;;5.13;0.93;;;11.90;80.70;;;;;;4876041;29;20036;-74
2021/08/30 02:45:57;;;;;;;3.53;1.00;;;11.90;80.80;;;;;;4867210;29;20048;-72
2021/08/30 02:48:24;;;;;;;4.85;0.98;;;11.80;80.90;;;;;;4875605;29;20064;-73
2021/08/30 02:50:53;;;;;;;3.95;0.95;;;11.80;80.80;;;;;;4870949;29;20399;-69
2021/08/30 02:53:22;;;;;;;8.38;1.48;;;11.80;81.00;;;;;;4874289;29;20036;-73
2021/08/30 02:55:49;;;;;;;2.53;0.73;;;11.80;81.10;;;;;;4873901;29;20029;-71
2021/08/30 02:58:15;;;;;;;5.88;1.65;;;11.80;81.10;;;;;;4873915;29;20026;-72
2021/08/30 03:00:42;;;;;;;5.40;0.95;;;11.80;81.20;;;;;;4873392;29;20416;-72
2021/08/30 03:03:09;;;;;;;3.60;0.73;;;11.80;81.20;;;;;;4877263;29;20033;-71
2021/08/30 03:05:40;;;;;;;5.22;0.80;;;11.80;81.10;;;;;;4875533;29;20025;-73
2021/08/30 03:08:09;;;;;;;1.50;1.02;;;11.80;81.00;;;;;;4875804;29;20025;-74
2021/08/30 03:10:37;;;;;;;6.20;2.33;;;11.70;80.90;;;;;;4871247;29;20029;-70
2021/08/30 03:13:06;;;;;;;2.50;0.73;;;11.70;81.10;;;;;;4877177;29;20036;-73
2021/08/30 03:15:33;;;;;;;8.05;1.65;;;11.70;81.20;;;;;;4874883;29;20444;-73
2021/08/30 03:18:07;;;;;;;1.92;1.05;;;11.70;81.30;;;;;;4878722;29;20135;-73
2021/08/30 03:20:34;;;;;;;4.10;1.17;;;11.70;81.30;;;;;;4875492;29;20108;-73
2021/08/30 03:23:02;;;;;;;4.15;0.85;;;11.70;81.40;;;;;;4875617;29;20025;-72
2021/08/30 03:25:33;;;;;;;7.07;1.42;;;11.70;81.20;;;;;;4874831;29;20123;-73
2021/08/30 03:28:39;;;;;;;9.38;1.10;;;11.70;81.20;;;;;;4874746;29;20014;-74
2021/08/30 03:31:45;;;;;;;5.78;2.00;;;11.70;81.30;;;;;;4873557;29;20033;-72
2021/08/30 03:34:51;;;;;;;4.53;1.05;;;11.80;81.30;;;;;;4876830;29;20096;-69
2021/08/30 03:37:59;;;;;;;2.55;0.80;;;11.70;81.40;;;;;;4874940;29;20048;-73
2021/08/30 03:41:05;;;;;;;1.48;0.63;;;11.80;81.40;;;;;;4871546;29;20033;-73
2021/08/30 03:44:11;;;;;;;3.55;1.13;;;11.80;81.60;;;;;;4874530;29;20523;-72
2021/08/30 03:47:17;;;;;;;2.25;1.02;;;11.80;81.50;;;;;;4855722;29;20412;-72
2021/08/30 03:50:23;;;;;;;1.55;0.75;;;11.80;81.80;;;;;;4874184;29;20037;-73
2021/08/30 03:53:30;;;;;;;5.25;0.90;;;11.80;81.30;;;;;;4876500;29;20553;-73
2021/08/30 03:56:37;;;;;;;2.25;0.70;;;11.80;81.50;;;;;;4875749;29;20120;-68
2021/08/30 03:59:43;;;;;;;4.43;1.33;;;11.80;81.40;;;;;;4874731;29;20022;-69
2021/08/30 04:02:49;;;;;;;2.38;0.88;;;11.80;81.10;;;;;;4872760;29;20128;-70
2021/08/30 04:05:55;;;;;;;110.30;69.57;;;11.80;81.00;;;;;;4876777;29;20040;-72
2021/08/30 04:09:01;;;;;;;12.27;8.50;;;11.70;81.00;;;;;;4872405;29;20037;-72
2021/08/30 04:12:07;;;;;;;2.17;1.15;;;11.80;80.70;;;;;;4872814;29;20021;-72
2021/08/30 04:15:13;;;;;;;0.75;0.50;;;11.80;80.30;;;;;;4873758;29;20021;-78
2021/08/30 04:18:19;;;;;;;4.50;1.75;;;11.80;80.40;;;;;;4876696;29;20132;-73
2021/08/30 04:21:26;;;;;;;3.40;0.90;;;11.70;80.50;;;;;;4875876;29;20025;-73
2021/08/30 04:24:33;;;;;;;3.38;1.08;;;11.80;80.90;;;;;;4873843;29;20035;-72
2021/08/30 04:27:40;;;;;;;3.58;0.90;;;11.80;81.00;;;;;;4857455;29;20033;-71
2021/08/30 04:30:46;;;;;;;179.65;125.05;;;11.70;81.20;;;;;;4876798;29;20449;-71
2021/08/30 04:33:52;;;;;;;30.08;19.02;;;11.80;81.60;;;;;;4872576;29;20021;-71
2021/08/30 04:36:58;;;;;;;5.22;1.90;;;11.80;81.60;;;;;;4875891;29;21062;-70
2021/08/30 04:40:04;;;;;;;2.88;1.05;;;11.80;81.60;;;;;;4876628;29;20044;-71
2021/08/30 04:43:10;;;;;;;3.00;0.80;;;11.90;81.40;;;;;;4870944;29;20143;-69
2021/08/30 04:46:16;;;;;;;5.20;2.22;;;11.90;81.20;;;;;;4868862;29;20276;-72
2021/08/30 04:49:24;;;;;;;2.40;0.80;;;11.90;81.20;;;;;;4873787;29;20048;-72
2021/08/30 04:52:30;;;;;;;1.55;0.80;;;11.90;81.10;;;;;;4875593;29;20089;-68
2021/08/30 04:55:36;;;;;;;4.38;1.95;;;11.80;80.90;;;;;;4871950;29;20472;-69
2021/08/30 04:58:42;;;;;;;2.58;0.93;;;11.90;81.00;;;;;;4871000;29;20037;-68
2021/08/30 05:01:48;;;;;;;2.75;0.75;;;11.90;80.80;;;;;;4873776;29;20115;-70
2021/08/30 05:04:55;;;;;;;8.68;1.33;;;11.80;80.70;;;;;;4873521;29;20025;-71
2021/08/30 05:08:01;;;;;;;4.07;0.60;;;11.80;81.40;;;;;;4873811;29;20036;-69
2021/08/30 05:11:07;;;;;;;4.88;1.30;;;11.80;80.70;;;;;;4855869;29;20040;-72
2021/08/30 05:14:13;;;;;;;3.53;0.98;;;11.90;80.90;;;;;;4875877;29;20044;-70
2021/08/30 05:17:19;;;;;;;5.63;0.90;;;11.90;80.70;;;;;;4873600;29;20025;-71
2021/08/30 05:20:26;;;;;;;3.47;0.90;;;11.80;80.60;;;;;;4871080;29;20020;-71
2021/08/30 05:23:32;;;;;;;2.97;1.00;;;11.80;80.50;;;;;;4874640;29;20025;-71
2021/08/30 05:26:38;;;;;;;2.67;0.80;;;11.80;80.50;;;;;;4873464;29;20082;-72
2021/08/30 05:29:44;;;;;;;5.68;0.75;;;11.90;80.40;;;;;;4875706;29;20282;-72
2021/08/30 05:32:50;;;;;;;3.22;2.17;;;11.80;80.20;;;;;;4874381;29;20085;-71
2021/08/30 05:35:56;;;;;;;6.63;1.10;;;11.80;80.20;;;;;;4872352;29;20044;-71
2021/08/30 05:39:02;;;;;;;3.10;0.63;;;11.80;80.20;;;;;;4870999;29;20037;-71
2021/08/30 05:42:08;;;;;;;2.92;1.23;;;11.80;80.30;;;;;;4873527;29;20059;-71
2021/08/30 05:45:14;;;;;;;1.77;1.07;;;11.90;80.20;;;;;;4855331;29;20668;-69
2021/08/30 05:48:20;;;;;;;1.15;0.75;;;11.90;80.30;;;;;;4875485;29;20653;-71
2021/08/30 05:51:26;;;;;;;5.45;1.55;;;11.90;80.20;;;;;;4871253;29;20021;-71
2021/08/30 05:54:33;;;;;;;1.90;0.65;;;11.90;80.20;;;;;;4872469;29;20033;-72
2021/08/30 05:57:39;;;;;;;2.45;1.08;;;11.90;80.10;;;;;;4870747;29;20037;-71
2021/08/30 06:00:45;;;;;;;2.55;0.60;;;11.90;80.10;;;;;;4868663;29;20053;-70
2021/08/30 06:03:51;;;;;;;5.20;0.80;;;12.00;80.30;;;;;;4868501;29;20033;-71
2021/08/30 06:06:57;;;;;;;5.15;0.82;;;12.00;80.40;;;;;;4852225;29;20044;-69
2021/08/30 06:10:03;;;;;;;3.78;0.93;;;12.00;80.60;;;;;;4868480;29;20100;-72
2021/08/30 06:12:30;;;;;;;4.70;1.52;;;12.00;80.60;;;;;;4868102;29;20360;-72
2021/08/30 06:14:56;;;;;;;3.80;0.65;;;12.00;80.60;;;;;;4868955;29;20046;-72
2021/08/30 06:17:23;;;;;;;5.40;0.73;;;12.10;80.60;;;;;;4872451;29;20513;-71
2021/08/30 06:19:49;;;;;;;3.88;0.88;;;12.00;80.50;;;;;;4870107;29;20033;-71
2021/08/30 06:22:15;;;;;;;2.88;0.82;;;12.00;80.50;;;;;;4866507;29;20030;-71
2021/08/30 06:24:46;;;;;;;4.45;0.85;;;12.10;80.70;;;;;;4858494;29;20031;-73
2021/08/30 06:27:53;;;;;;;2.45;0.77;;;12.10;80.70;;;;;;4866236;29;20472;-72
2021/08/30 06:30:19;;;;;;;17.98;12.27;;;12.10;80.80;;;;;;4866872;29;20420;-72
2021/08/30 06:33:25;;;;;;;7.35;3.58;;;12.10;80.80;;;;;;4867741;29;20049;-72
2021/08/30 06:36:31;;;;;;;2.78;0.70;;;12.10;80.60;;;;;;4869367;29;20140;-72
2021/08/30 06:39:00;;;;;;;4.25;0.80;;;12.10;80.70;;;;;;4868225;29;20049;-71
2021/08/30 06:41:28;;;;;;;4.32;0.70;;;12.10;80.90;;;;;;4864672;29;20041;-72
2021/08/30 06:43:55;;;;;;;3.15;1.20;;;12.10;80.90;;;;;;4865291;29;20026;-70
2021/08/30 06:46:22;;;;;;;2.75;0.75;;;12.20;81.20;;;;;;4863620;29;20026;-71
2021/08/30 06:48:48;;;;;;;7.53;0.90;;;12.20;81.10;;;;;;4869339;29;20773;-70
2021/08/30 06:51:15;;;;;;;2.80;1.58;;;12.20;81.00;;;;;;4868409;29;20089;-72
2021/08/30 06:53:41;;;;;;;2.63;1.35;;;12.30;81.00;;;;;;4872707;29;20033;-71
2021/08/30 06:56:08;;;;;;;2.65;1.58;;;12.20;80.80;;;;;;4868272;29;20517;-71
2021/08/30 06:58:34;;;;;;;3.08;1.25;;;12.20;81.00;;;;;;4871168;29;20429;-72
2021/08/30 07:01:01;;;;;;;5.07;1.25;;;12.30;81.20;;;;;;4870594;29;20021;-73
2021/08/30 07:03:27;;;;;;;4.60;1.20;;;12.30;81.30;;;;;;4871622;29;20112;-70
2021/08/30 07:05:54;;;;;;;1.17;0.82;;;12.30;81.30;;;;;;4870353;29;20191;-71
2021/08/30 07:08:20;;;;;;;3.15;1.10;;;12.30;81.40;;;;;;4865423;29;20484;-71
2021/08/30 07:10:47;;;;;;;6.28;1.25;;;12.30;81.40;;;;;;4869645;29;20017;-71
2021/08/30 07:13:53;;;;;;;0.98;0.80;;;12.30;81.40;;;;;;4864826;29;20021;-72
2021/08/30 07:16:19;;;;;;;1.65;0.70;;;12.40;81.50;;;;;;4871756;29;20725;-71
2021/08/30 07:18:46;;;;;;;1.83;1.00;;;12.40;81.30;;;;;;4869529;29;20040;-70
2021/08/30 07:21:12;;;;;;;6.05;0.93;;;12.40;81.10;;;;;;4865655;29;20104;-70
2021/08/30 07:23:39;;;;;;;12.75;7.80;;;12.50;81.00;;;;;;4873560;29;20036;-71
2021/08/30 07:26:06;;;;;;;22.75;18.08;;;12.40;80.70;;;;;;4877704;29;20028;-72
2021/08/30 07:28:32;;;;;;;4.65;2.78;;;12.40;80.80;;;;;;4870827;29;20029;-70
2021/08/30 07:31:39;;;;;;;4.50;1.00;;;12.50;80.70;;;;;;4865464;29;20026;-69
2021/08/30 07:34:45;;;;;;;2.80;1.25;;;12.50;80.80;;;;;;4863420;29;20037;-70
2021/08/30 07:37:51;;;;;;;3.10;0.57;;;12.50;80.80;;;;;;4869409;29;20052;-72
2021/08/30 07:40:57;;;;;;;2.75;0.85;;;12.50;81.00;;;;;;4863307;29;20121;-72
2021/08/30 07:44:03;;;;;;;7.70;1.23;;;12.50;81.00;;;;;;4868475;29;20067;-73
2021/08/30 07:47:09;;;;;;;1.95;0.88;;;12.60;81.00;;;;;;4862188;29;20434;-71
2021/08/30 07:50:15;;;;;;;3.53;1.27;;;12.60;81.10;;;;;;4860991;29;20078;-72
2021/08/30 07:53:26;;;;;;;3.67;1.05;;;12.60;81.00;;;;;;4865190;29;20025;-71
2021/08/30 07:56:32;;;;;;;4.65;0.98;;;12.60;80.80;;;;;;4862130;29;20025;-72
2021/08/30 07:59:38;;;;;;;5.47;1.48;;;12.60;81.50;;;;;;4867629;29;20458;-71
2021/08/30 08:02:46;;;;;;;4.43;0.85;;;12.60;81.00;;;;;;4869372;29;20045;-71
2021/08/30 08:05:52;;;;;;;1.90;0.82;;;12.60;80.90;;;;;;4867012;29;20032;-73
2021/08/30 08:08:58;;;;;;;1.20;0.98;;;12.60;81.10;;;;;;4849287;29;20045;-72
2021/08/30 08:12:07;;;;;;;11.68;8.90;;;12.60;81.20;;;;;;4869121;29;20100;-72
2021/08/30 08:15:23;;;;;;;2.55;1.67;;;12.70;81.20;;;;;;4866174;29;20070;-72
2021/08/30 08:18:30;;;;;;;4.35;0.80;;;12.60;81.20;;;;;;4867147;29;20097;-71
2021/08/30 08:21:39;;;;;;;3.20;1.17;;;12.60;81.40;;;;;;4849626;29;20030;-69
2021/08/30 08:24:45;;;;;;;2.03;1.20;;;12.60;81.50;;;;;;4867839;29;20484;-71
2021/08/30 08:27:51;;;;;;;5.20;1.52;;;12.60;81.90;;;;;;4864073;29;20418;-71
2021/08/30 08:30:57;;;;;;;2.50;0.93;;;12.70;82.10;;;;;;4864844;29;20499;-69
2021/08/30 08:34:03;;;;;;;2.92;1.75;;;12.70;82.20;;;;;;4866757;29;20025;-72
2021/08/30 08:37:10;;;;;;;4.35;1.20;;;12.70;82.20;;;;;;4863092;29;20170;-73
2021/08/30 08:40:17;;;;;;;4.57;1.55;;;12.80;82.50;;;;;;4864474;29;20395;-72
2021/08/30 08:43:23;;;;;;;6.00;1.05;;;12.80;82.70;;;;;;4870152;29;20029;-71
2021/08/30 08:46:38;;;;;;;4.60;2.38;;;12.90;82.90;;;;;;4864632;29;20041;-73
2021/08/30 08:49:51;;;;;;;6.57;2.83;;;13.00;82.90;;;;;;4846831;29;20405;-72
2021/08/30 08:53:06;;;;;;;4.82;2.00;;;13.00;83.00;;;;;;4850696;29;20047;-71
2021/08/30 08:56:12;;;;;;;2.67;1.35;;;13.00;83.50;;;;;;4866974;29;20039;-72
2021/08/30 08:59:18;;;;;;;4.65;1.33;;;13.00;83.90;;;;;;4871725;29;20490;-72
2021/08/30 09:02:24;;;;;;;3.67;1.60;;;13.00;84.10;;;;;;4872092;29;20043;-73
2021/08/30 09:05:34;;;;;;;2.90;1.40;;;13.00;84.20;;;;;;4865795;29;20089;-71
2021/08/30 09:08:52;;;;;;;4.95;1.10;;;13.00;84.50;;;;;;4867266;29;20500;-73
2021/08/30 09:11:59;;;;;;;2.55;0.75;;;13.00;84.70;;;;;;4864970;29;20078;-71
2021/08/30 09:14:27;;;;;;;10.05;1.23;;;13.00;84.80;;;;;;4869527;29;20030;-69
2021/08/30 09:17:05;;;;;;;4.80;1.33;;;13.10;84.90;;;;;;4870850;29;20057;-70
2021/08/30 09:19:35;;;;;;;4.22;0.77;;;13.10;84.80;;;;;;4867065;29;20029;-72
2021/08/30 09:22:04;;;;;;;7.82;2.20;;;13.10;84.90;;;;;;4867845;29;20659;-72
2021/08/30 09:24:31;;;;;;;7.35;1.40;;;13.10;85.00;;;;;;4872527;29;20029;-69
2021/08/30 09:27:04;;;;;;;0.82;0.80;;;13.10;85.30;;;;;;4869067;29;20033;-72
2021/08/30 09:29:37;;;;;;;3.95;1.75;;;13.10;85.40;;;;;;4868787;29;20033;-71
2021/08/30 09:32:17;;;;;;;11.02;2.45;;;13.00;85.50;;;;;;4869026;29;20017;-72
2021/08/30 09:34:45;;;;;;;6.82;3.95;;;13.00;85.90;;;;;;4865689;29;20026;-71
2021/08/30 09:37:19;;;;;;;7.53;2.83;;;13.00;86.00;;;;;;4866982;29;20045;-69
2021/08/30 09:39:51;;;;;;;3.58;1.38;;;13.00;86.10;;;;;;4864110;29;20377;-72
2021/08/30 09:42:17;;;;;;;5.38;1.20;;;13.00;86.20;;;;;;4866342;29;20036;-70
2021/08/30 09:44:45;;;;;;;1.05;0.70;;;13.00;86.20;;;;;;4862373;29;20073;-72
2021/08/30 09:47:22;;;;;;;1.55;0.70;;;13.00;86.40;;;;;;4853988;29;20436;-69
2021/08/30 09:50:12;;;;;;;3.45;1.10;;;13.00;86.40;;;;;;4862083;29;20382;-71
2021/08/30 09:52:40;;;;;;;6.88;1.52;;;13.10;86.40;;;;;;4867378;29;20030;-70
2021/08/30 09:55:09;;;;;;;1.08;0.77;;;13.10;86.50;;;;;;4864120;29;20086;-70
2021/08/30 09:57:38;;;;;;;2.28;0.50;;;13.10;86.50;;;;;;4848200;29;20048;-70
2021/08/30 10:00:06;;;;;;;4.75;1.08;;;13.20;86.90;;;;;;4866081;29;20377;-72
2021/08/30 10:02:36;;;;;;;4.30;1.13;;;13.20;86.90;;;;;;4868826;29;20029;-71
2021/08/30 10:05:03;;;;;;;7.05;0.82;;;13.30;87.10;;;;;;4849341;29;20025;-70
2021/08/30 10:07:32;;;;;;;4.78;1.23;;;13.30;87.20;;;;;;4871233;29;20512;-70
2021/08/30 10:10:08;;;;;;;5.38;1.13;;;13.40;87.30;;;;;;4868412;29;20025;-71
2021/08/30 10:12:53;;;;;;;2.72;0.50;;;13.40;87.30;;;;;;4853599;29;20041;-72
2021/08/30 10:15:21;;;;;;;;;;;13.40;87.30;;;;;;4866071;29;20119;-72
2021/08/30 10:18:11;;;;;;;8.88;2.20;;;13.50;87.40;;;;;;4847437;29;19927;-72
2021/08/30 10:20:45;;;;;;;6.43;1.95;;;13.50;87.80;;;;;;4861926;29;20457;-72
2021/08/30 10:23:11;;;;;;;5.32;1.88;;;13.60;87.90;;;;;;4865824;29;20044;-71
2021/08/30 10:25:41;;;;;;;5.28;1.55;;;13.70;87.90;;;;;;4868296;29;20033;-71
2021/08/30 10:28:56;;;;;;;7.88;1.25;;;13.80;87.70;;;;;;4866351;29;20486;-71
2021/08/30 10:32:10;;;;;;;4.22;1.02;;;13.90;87.50;;;;;;4865137;29;20486;-70
2021/08/30 10:35:16;;;;;;;4.75;1.45;;;14.00;87.40;;;;;;4863028;29;20049;-71
2021/08/30 10:38:21;;;;;;;7.50;1.63;;;14.00;87.30;;;;;;4847152;29;20049;-72
2021/08/30 10:40:51;;;;;;;3.20;1.33;;;14.10;87.80;;;;;;4863421;29;20044;-71
2021/08/30 10:43:20;;;;;;;4.57;1.80;;;14.10;87.90;;;;;;4870067;29;20029;-71
2021/08/30 10:45:58;;;;;;;10.15;1.58;;;14.10;87.90;;;;;;4867796;29;20029;-72
2021/08/30 10:48:39;;;;;;;5.35;1.75;;;14.20;88.20;;;;;;4868039;29;20022;-70
2021/08/30 10:51:37;;;;;;;3.53;1.13;;;14.20;88.30;;;;;;4865781;29;20549;-70
2021/08/30 10:54:51;;;;;;;3.33;1.20;;;14.20;88.50;;;;;;4829224;29;20032;-70
2021/08/30 10:58:02;;;;;;;3.80;1.45;;;14.30;88.60;;;;;;4868272;29;20045;-70
2021/08/30 11:01:12;;;;;;;5.47;1.40;;;14.30;88.80;;;;;;4864652;29;20025;-71
2021/08/30 11:04:18;;;;;;;4.57;1.27;;;14.30;88.70;;;;;;4863204;29;20049;-71
2021/08/30 11:07:26;;;;;;;4.15;1.10;;;14.30;88.90;;;;;;4863682;29;20378;-71
2021/08/30 11:10:35;;;;;;;4.22;1.13;;;14.40;89.30;;;;;;4868759;29;20033;-70
2021/08/30 11:13:46;;;;;;;3.53;1.83;;;14.40;88.60;;;;;;4849189;29;20037;-72
2021/08/30 11:16:59;;;;;;;3.88;1.25;;;14.40;88.60;;;;;;4859777;29;20446;-71
2021/08/30 11:20:05;;;;;;;6.70;2.25;;;14.40;88.60;;;;;;4862110;29;20029;-71
2021/08/30 11:23:11;;;;;;;31.77;25.95;;;14.40;88.80;;;;;;4862054;29;20058;-72
2021/08/30 11:26:27;;;;;;;5.95;3.05;;;14.50;89.20;;;;;;4863489;29;20846;-71
2021/08/30 11:29:38;;;;;;;4.15;1.30;;;14.50;89.10;;;;;;4865153;29;20345;-70
2021/08/30 11:32:50;;;;;;;5.68;1.40;;;14.60;88.90;;;;;;4866212;29;20039;-72
2021/08/30 11:35:58;;;;;;;7.35;1.55;;;14.50;88.80;;;;;;4860418;29;20040;-72
2021/08/30 11:39:16;;;;;;;4.25;1.50;;;14.60;88.90;;;;;;4860519;29;20065;-72
2021/08/30 11:42:25;;;;;;;4.20;1.77;;;14.60;88.70;;;;;;4856712;29;20035;-71
2021/08/30 11:45:33;;;;;;;2.88;1.35;;;14.70;88.70;;;;;;4865213;29;20052;-72
2021/08/30 11:48:39;;;;;;;5.13;1.27;;;14.70;88.60;;;;;;4863746;29;20029;-72
2021/08/30 11:51:06;;;;;;;5.50;1.50;;;14.70;88.60;;;;;;4867909;29;20084;-70
2021/08/30 11:53:35;;;;;;;3.85;1.00;;;14.70;88.60;;;;;;4857332;29;20030;-71
2021/08/30 11:56:02;;;;;;;2.85;1.40;;;14.70;88.50;;;;;;4870203;29;20074;-72
2021/08/30 11:58:34;;;;;;;27.85;20.52;;;14.80;88.50;;;;;;4866125;29;20104;-71
2021/08/30 12:01:40;;;;;;;37.20;22.55;;;14.80;88.40;;;;;;4857224;29;20037;-73
2021/08/30 12:04:58;;;;;;;16.70;5.80;;;14.80;88.30;;;;;;4866851;29;20020;-73
2021/08/30 12:08:07;;;;;;;4.88;2.03;;;14.80;88.10;;;;;;4862985;29;20021;-72
2021/08/30 12:11:03;;;;;;;5.63;2.20;;;14.90;88.10;;;;;;4865373;29;20487;-70
2021/08/30 12:13:44;;;;;;;5.97;2.03;;;14.90;88.20;;;;;;4862031;29;20362;-71
2021/08/30 12:16:19;;;;;;;4.85;1.50;;;14.90;88.00;;;;;;4861739;29;20029;-71
2021/08/30 12:18:49;;;;;;;3.33;1.67;;;14.90;87.50;;;;;;4867283;29;20093;-70
2021/08/30 12:21:39;;;;;;;10.02;1.90;;;14.90;87.30;;;;;;4871099;29;20072;-70
2021/08/30 12:24:10;;;;;;;3.47;2.08;;;14.90;87.20;;;;;;4864643;29;20021;-70
2021/08/30 12:27:16;;;;;;;5.85;1.50;;;14.90;87.20;;;;;;4859176;29;20113;-69
2021/08/30 12:29:44;;;;;;;3.95;1.42;;;14.90;87.30;;;;;;4867937;29;20054;-70
2021/08/30 12:32:11;;;;;;;3.25;1.77;;;14.90;87.40;;;;;;4867671;29;20758;-71
2021/08/30 12:34:42;;;;;;;10.30;6.55;;;14.90;88.10;;;;;;4871996;29;20108;-73
2021/08/30 12:37:09;;;;;;;6.68;2.65;;;14.90;88.80;;;;;;4869674;29;20128;-73
2021/08/30 12:39:35;;;;;;;7.93;1.52;;;14.90;89.30;;;;;;4868514;29;20736;-71
2021/08/30 12:42:02;;;;;;;12.00;2.15;;;14.90;89.30;;;;;;4869467;29;20034;-73
2021/08/30 12:44:28;;;;;;;5.28;1.80;;;14.80;88.80;;;;;;4869128;29;20389;-72
2021/08/30 12:46:55;;;;;;;6.32;1.52;;;14.90;88.40;;;;;;4871238;29;20548;-72
2021/08/30 12:49:21;;;;;;;7.03;2.05;;;14.90;88.30;;;;;;4870216;29;20028;-72
2021/08/30 12:51:48;;;;;;;4.30;1.75;;;14.90;88.10;;;;;;4867749;29;20025;-72
2021/08/30 12:54:14;;;;;;;6.65;1.90;;;14.90;88.20;;;;;;4869867;29;20028;-72
2021/08/30 12:56:41;;;;;;;5.93;1.60;;;14.90;88.30;;;;;;4870837;29;20041;-71
2021/08/30 12:59:07;;;;;;;5.20;2.05;;;14.90;88.10;;;;;;4870221;29;20047;-71
2021/08/30 13:01:34;;;;;;;5.50;1.63;;;15.00;87.90;;;;;;4869059;29;20061;-72
2021/08/30 13:04:01;;;;;;;3.85;1.75;;;14.90;87.80;;;;;;4869403;29;20029;-71
2021/08/30 13:06:27;;;;;;;4.03;1.80;;;15.00;87.80;;;;;;4870681;29;20036;-73
2021/08/30 13:08:53;;;;;;;6.57;1.70;;;15.00;88.10;;;;;;4869972;29;20092;-73
2021/08/30 13:11:20;;;;;;;4.75;1.98;;;15.10;88.10;;;;;;4870078;29;20083;-72
2021/08/30 13:13:47;;;;;;;8.68;2.25;;;15.10;88.10;;;;;;4866759;29;20109;-72
2021/08/30 13:16:14;;;;;;;13.63;1.80;;;15.10;87.90;;;;;;4870640;29;20021;-72
2021/08/30 13:18:41;;;;;;;3.67;1.92;;;15.20;87.90;;;;;;4871757;29;20033;-71
2021/08/30 13:21:07;;;;;;;6.10;2.40;;;15.20;87.70;;;;;;4871751;29;20025;-71
2021/08/30 13:23:34;;;;;;;6.57;1.70;;;15.20;87.60;;;;;;4867777;29;20120;-72
2021/08/30 13:26:00;;;;;;;3.75;1.83;;;15.20;87.70;;;;;;4869022;29;20021;-72
2021/08/30 13:28:27;;;;;;;9.98;2.72;;;15.30;87.90;;;;;;4868169;29;20033;-71
2021/08/30 13:30:53;;;;;;;11.43;2.63;;;15.30;87.90;;;;;;4867721;29;20396;-72
2021/08/30 13:33:20;;;;;;;8.93;3.90;;;15.30;87.60;;;;;;4864752;29;20550;-71
2021/08/30 13:35:46;;;;;;;10.52;2.42;;;15.40;87.40;;;;;;4870277;29;20025;-70
2021/08/30 13:38:13;;;;;;;11.07;2.33;;;15.40;87.30;;;;;;4870011;29;20450;-72
2021/08/30 13:40:39;;;;;;;8.25;2.25;;;15.50;87.30;;;;;;4870598;29;20084;-71
2021/08/30 13:43:06;;;;;;;11.23;1.90;;;15.50;87.30;;;;;;4873203;29;20017;-72
2021/08/30 13:45:32;;;;;;;10.00;2.20;;;15.50;87.60;;;;;;4870387;29;20032;-71
2021/08/30 13:47:59;;;;;;;8.75;2.38;;;15.50;86.90;;;;;;4870239;29;20084;-72
2021/08/30 13:50:26;;;;;;;11.48;2.50;;;15.50;86.90;;;;;;4869324;29;20025;-72
2021/08/30 13:52:57;;;;;;;8.27;2.55;;;15.60;87.10;;;;;;4864665;29;20033;-70
2021/08/30 13:55:24;;;;;;;16.58;4.05;;;15.60;87.40;;;;;;4863757;29;20150;-70
2021/08/30 13:57:51;;;;;;;16.08;3.08;;;15.60;87.30;;;;;;4864845;29;20045;-71
2021/08/30 14:00:18;;;;;;;14.18;4.13;;;15.60;87.30;;;;;;4866614;29;20631;-70
2021/08/30 14:02:45;;;;;;;7.63;2.58;;;15.60;87.20;;;;;;4867037;29;20100;-73
2021/08/30 14:05:12;;;;;;;17.85;4.93;;;15.60;87.00;;;;;;4865814;29;20112;-73
2021/08/30 14:07:45;;;;;;;16.25;3.88;;;15.60;87.00;;;;;;4861973;29;20034;-69
2021/08/30 14:10:12;;;;;;;13.77;3.38;;;15.60;87.20;;;;;;4854495;29;20119;-70
2021/08/30 14:12:40;;;;;;;9.50;3.28;;;15.60;87.50;;;;;;4860429;29;20117;-72
2021/08/30 14:15:11;;;;;;;4.80;2.33;;;15.60;87.70;;;;;;4865890;29;20052;-70
2021/08/30 14:17:39;;;;;;;8.10;2.00;;;15.60;87.70;;;;;;4862857;29;20902;-70
2021/08/30 14:20:07;;;;;;;4.03;1.65;;;15.60;87.70;;;;;;4869040;29;20379;-70
2021/08/30 14:22:34;;;;;;;7.57;1.95;;;15.50;87.70;;;;;;4864996;29;20017;-71